Benchland, Montana
Current Conditions -  °F | °C
As of 2:54 PM on Wednesday 22 Oct 2014 (Local Time) from KLWT Reporting Station
Clear Clear  
Wind Chill: 58°   Ceiling: Unl
Heat Index: 58°   Visibility: 10mi
Dew Point: 29°   Wind: 13mph
Humidity: 33%   Direction: 270°W
Pressure: 29.92"   Gusts: NA
Location:  47.1096°N, 109.884°W
Report Text: KLWT 222054Z AUTO 27011KT 10SM CLR 14/M02 A2992 RMK AO2 SLP121 T01441017 56014
Loading
Personal Weather Stations






























Interactive Weather Map New forecast layout! Learn more

10-Day Weather Forecast

Advertisements
Track Severe Weather on mobile